createdAt,value
2023-02-02T00:00:59.280Z,97.90
2023-02-02T00:03:58.772Z,99.10
2023-02-02T00:06:31.549Z,97.40
2023-02-02T00:09:04.883Z,98.60
2023-02-02T00:11:36.129Z,97.00
2023-02-02T00:14:06.957Z,98.50
2023-02-02T00:16:47.754Z,97.90
2023-02-02T00:19:51.580Z,97.30
2023-02-02T00:22:22.774Z,97.60
2023-02-02T00:24:53.903Z,97.80
2023-02-02T00:27:24.946Z,97.90
2023-02-02T00:29:55.762Z,96.80
2023-02-02T00:32:27.190Z,97.80
2023-02-02T00:34:58.281Z,99.10
2023-02-02T00:40:21.154Z,96.80
2023-02-02T00:42:51.938Z,97.10
2023-02-02T00:45:25.870Z,97.30
2023-02-02T00:48:00.317Z,97.30
2023-02-02T00:50:31.707Z,99.00
2023-02-02T00:53:02.461Z,98.10
2023-02-02T00:55:56.922Z,97.90
2023-02-02T00:58:28.476Z,99.00
2023-02-02T01:01:02.538Z,98.40
2023-02-02T01:03:33.685Z,98.90
2023-02-02T01:06:05.058Z,99.20
2023-02-02T01:08:36.317Z,98.90
2023-02-02T01:11:07.963Z,98.40
2023-02-02T01:13:58.954Z,99.50
2023-02-02T01:16:49.723Z,99.00
2023-02-02T01:19:20.842Z,99.20
2023-02-02T01:21:58.182Z,99.60
2023-02-02T01:24:31.346Z,99.90
2023-02-02T01:27:05.968Z,99.90
2023-02-02T01:29:36.917Z,98.80
2023-02-02T01:32:08.812Z,99.00
2023-02-02T01:34:43.329Z,99.90
2023-02-02T01:37:14.969Z,99.90
2023-02-02T01:39:46.093Z,99.90
2023-02-02T01:42:21.821Z,99.90
2023-02-02T01:45:16.449Z,99.90
2023-02-02T01:47:57.972Z,98.40
2023-02-02T01:51:05.908Z,99.70
2023-02-02T01:53:59.333Z,98.60
2023-02-02T01:56:37.367Z,98.70
2023-02-02T02:01:56.478Z,99.80
2023-02-02T02:04:29.112Z,99.90
2023-02-02T02:07:03.364Z,99.80
2023-02-02T02:09:35.838Z,99.70
2023-02-02T02:12:17.228Z,99.80
2023-02-02T02:15:09.920Z,99.80
2023-02-02T02:18:20.424Z,99.80
2023-02-02T02:21:19.539Z,99.80
2023-02-02T02:27:45.070Z,99.80
2023-02-02T02:30:36.283Z,99.40
2023-02-02T02:33:29.499Z,99.80
2023-02-02T02:36:13.769Z,99.80
2023-02-02T02:39:05.950Z,99.80
2023-02-02T02:41:46.812Z,99.80
2023-02-02T02:44:21.349Z,99.70
2023-02-02T02:46:53.094Z,99.60
2023-02-02T02:49:24.368Z,99.60
2023-02-02T02:51:56.908Z,99.60
2023-02-02T02:54:47.096Z,99.80
2023-02-02T02:57:32.950Z,99.40
2023-02-02T03:00:35.619Z,99.40
2023-02-02T03:03:36.632Z,99.50
2023-02-02T03:06:16.397Z,99.60
2023-02-02T03:09:02.833Z,99.20
2023-02-02T03:11:36.193Z,98.80
2023-02-02T03:14:27.983Z,99.10
2023-02-02T03:17:00.604Z,99.40
2023-02-02T03:19:31.811Z,99.50
2023-02-02T03:22:03.094Z,98.80
2023-02-02T03:24:54.243Z,98.80
2023-02-02T03:30:38.068Z,99.40
2023-02-02T03:33:50.593Z,99.50
2023-02-02T03:36:24.787Z,99.50
2023-02-02T03:38:56.720Z,99.50
2023-02-02T03:41:34.004Z,99.50
2023-02-02T03:44:05.222Z,99.50
2023-02-02T03:46:36.940Z,99.70
2023-02-02T03:49:08.199Z,99.50
2023-02-02T03:51:40.992Z,99.20
2023-02-02T03:54:11.955Z,98.90
2023-02-02T03:57:02.801Z,98.70
2023-02-02T03:59:33.893Z,99.60
2023-02-02T04:02:05.296Z,99.50
2023-02-02T04:07:21.633Z,98.90
2023-02-02T04:09:52.904Z,99.10
2023-02-02T04:12:24.262Z,99.70
2023-02-02T04:14:55.344Z,99.70
2023-02-02T04:17:29.492Z,99.40
2023-02-02T04:20:01.022Z,99.30
2023-02-02T04:22:32.071Z,99.70
2023-02-02T04:25:03.224Z,99.70
2023-02-02T04:27:35.513Z,99.30
2023-02-02T04:30:07.660Z,99.70
2023-02-02T04:32:38.680Z,99.10
2023-02-02T04:35:10.256Z,99.00
2023-02-02T04:38:06.365Z,99.60
2023-02-02T04:40:40.383Z,99.10
2023-02-02T04:46:01.715Z,99.10
2023-02-02T04:48:37.111Z,98.70
2023-02-02T04:53:56.735Z,99.70
2023-02-02T04:56:38.929Z,98.80
2023-02-02T04:59:26.871Z,99.10
2023-02-02T05:02:19.749Z,99.10
2023-02-02T05:04:50.817Z,99.10
2023-02-02T05:07:22.008Z,99.30
2023-02-02T05:09:53.097Z,98.60
2023-02-02T05:12:24.308Z,98.90
2023-02-02T05:15:10.372Z,98.80
2023-02-02T05:21:05.267Z,99.30
2023-02-02T05:23:36.617Z,99.20
2023-02-02T05:26:10.398Z,99.40
2023-02-02T05:28:41.344Z,99.10
2023-02-02T05:31:33.864Z,99.10
2023-02-02T05:34:05.268Z,98.90
2023-02-02T05:36:36.459Z,98.00
2023-02-02T05:39:29.975Z,98.20
2023-02-02T05:42:05.519Z,97.80
2023-02-02T05:44:57.439Z,98.90
2023-02-02T05:47:28.782Z,99.00
2023-02-02T05:49:59.947Z,99.00
2023-02-02T05:52:54.156Z,99.10
2023-02-02T05:55:48.816Z,99.10
2023-02-02T05:58:24.520Z,99.10
2023-02-02T06:00:57.056Z,98.80
2023-02-02T06:03:29.056Z,98.20
2023-02-02T06:06:01.571Z,98.90
2023-02-02T06:08:33.701Z,98.80
2023-02-02T06:11:15.637Z,98.30
2023-02-02T06:13:47.500Z,98.90
2023-02-02T06:16:21.285Z,99.00
2023-02-02T06:19:15.465Z,99.00
2023-02-02T06:21:50.931Z,99.00
2023-02-02T06:24:22.325Z,98.20
2023-02-02T06:26:54.906Z,98.70
2023-02-02T06:29:27.070Z,99.10
2023-02-02T06:31:58.606Z,98.90
2023-02-02T06:34:32.115Z,98.80
2023-02-02T06:37:04.078Z,99.00
2023-02-02T06:39:36.020Z,98.80
2023-02-02T06:42:20.730Z,98.90
2023-02-02T06:44:52.957Z,98.80
2023-02-02T06:50:46.847Z,98.60
2023-02-02T06:53:24.814Z,98.10
2023-02-02T06:56:03.687Z,98.60
2023-02-02T06:58:46.036Z,98.80
2023-02-02T07:01:17.584Z,97.90
2023-02-02T07:03:54.294Z,98.40
2023-02-02T07:06:30.836Z,97.60
2023-02-02T07:09:04.992Z,98.20
2023-02-02T07:11:40.662Z,98.00
2023-02-02T07:15:02.586Z,97.40
2023-02-02T07:17:35.269Z,97.80
2023-02-02T07:20:19.858Z,97.60
2023-02-02T07:23:37.890Z,98.80
2023-02-02T07:26:14.978Z,98.60
2023-02-02T07:29:21.363Z,98.50
2023-02-02T07:35:17.799Z,98.00
2023-02-02T07:37:55.347Z,98.50
2023-02-02T07:40:47.998Z,98.20
2023-02-02T07:46:29.407Z,98.10
2023-02-02T07:49:15.596Z,97.90
2023-02-02T07:52:02.751Z,98.40
2023-02-02T07:55:13.531Z,97.90
2023-02-02T07:58:00.485Z,97.30
2023-02-02T08:00:37.529Z,97.70
2023-02-02T08:03:08.926Z,97.70
2023-02-02T08:05:42.692Z,98.20
2023-02-02T08:08:29.820Z,98.60
2023-02-02T08:11:27.429Z,97.70
2023-02-02T08:14:20.310Z,98.10
2023-02-02T08:16:51.751Z,97.30
2023-02-02T08:19:48.533Z,97.60
2023-02-02T08:22:33.487Z,98.10
2023-02-02T08:25:04.447Z,98.10
2023-02-02T08:27:37.784Z,98.20
2023-02-02T08:30:58.691Z,97.70
2023-02-02T08:34:16.937Z,97.50
2023-02-02T08:36:48.038Z,97.90
2023-02-02T08:39:19.448Z,97.40
2023-02-02T08:41:58.210Z,97.90
2023-02-02T08:45:01.347Z,97.70
2023-02-02T08:48:10.871Z,97.60
2023-02-02T08:51:00.694Z,97.90
2023-02-02T08:54:10.491Z,97.50
2023-02-02T08:56:45.126Z,97.80
2023-02-02T08:59:17.873Z,97.40
2023-02-02T09:01:49.111Z,97.90
2023-02-02T09:04:39.899Z,97.40
2023-02-02T09:10:20.914Z,97.60
2023-02-02T09:12:52.895Z,97.40
2023-02-02T09:15:47.549Z,97.80
2023-02-02T09:18:18.951Z,97.60
2023-02-02T09:20:52.948Z,96.60
2023-02-02T09:23:24.085Z,96.50
2023-02-02T09:25:58.094Z,96.90
2023-02-02T09:28:28.600Z,96.80
2023-02-02T09:31:05.239Z,96.40
2023-02-02T09:34:39.539Z,96.20
2023-02-02T09:37:11.414Z,96.50
2023-02-02T09:39:42.562Z,97.10
2023-02-02T09:42:24.770Z,97.60
2023-02-02T09:45:38.024Z,97.30
2023-02-02T09:51:35.212Z,97.10
2023-02-02T09:54:10.749Z,96.10
2023-02-02T09:56:45.758Z,96.90
2023-02-02T09:59:25.695Z,97.10
2023-02-02T10:02:11.610Z,96.00
2023-02-02T10:04:51.568Z,96.00
2023-02-02T10:07:32.793Z,96.30
2023-02-02T10:10:22.211Z,95.90
2023-02-02T10:13:24.477Z,95.90
2023-02-02T10:16:21.501Z,96.50
2023-02-02T10:19:02.574Z,96.70
2023-02-02T10:22:05.976Z,96.90
2023-02-02T10:24:37.729Z,95.70
2023-02-02T10:27:16.049Z,95.90
2023-02-02T10:29:56.838Z,96.00
2023-02-02T10:32:32.580Z,96.00
2023-02-02T10:35:24.674Z,95.90
2023-02-02T10:38:04.571Z,97.00
2023-02-02T10:41:17.939Z,96.60
2023-02-02T10:44:03.136Z,96.20
2023-02-02T10:46:41.178Z,95.80
2023-02-02T10:49:23.887Z,95.90
2023-02-02T10:51:59.768Z,96.10
2023-02-02T10:55:15.983Z,95.80
2023-02-02T10:58:20.459Z,95.50
2023-02-02T11:00:55.447Z,95.60
2023-02-02T11:03:33.474Z,96.20
2023-02-02T11:06:26.233Z,95.60
2023-02-02T11:09:12.361Z,96.00
2023-02-02T11:14:48.115Z,95.20
2023-02-02T11:17:28.233Z,95.50
2023-02-02T11:20:11.584Z,95.30
2023-02-02T11:22:43.620Z,95.10
2023-02-02T11:25:34.105Z,95.30
2023-02-02T11:28:24.420Z,94.90
2023-02-02T11:30:56.832Z,95.50
2023-02-02T11:33:42.480Z,95.10
2023-02-02T11:36:40.159Z,95.60
2023-02-02T11:39:30.943Z,95.10
2023-02-02T11:42:12.157Z,95.10
2023-02-02T11:44:54.866Z,94.70
2023-02-02T11:47:57.470Z,95.10
2023-02-02T11:53:51.287Z,94.60
2023-02-02T11:56:28.940Z,94.70
2023-02-02T11:59:03.502Z,94.50
2023-02-02T12:02:22.154Z,95.10
2023-02-02T12:05:13.162Z,95.30
2023-02-02T12:11:03.561Z,95.10
2023-02-02T12:14:09.517Z,95.50
2023-02-02T12:19:56.981Z,95.00
2023-02-02T12:23:04.904Z,94.70
2023-02-02T12:26:26.869Z,95.30
2023-02-02T12:29:18.305Z,94.50
2023-02-02T12:32:11.754Z,94.40
2023-02-02T12:41:44.714Z,94.70
2023-02-02T12:44:54.179Z,94.50
2023-02-02T12:51:02.974Z,94.50
2023-02-02T12:53:43.188Z,94.40
2023-02-02T12:56:55.333Z,95.20
2023-02-02T12:59:26.727Z,94.50
2023-02-02T13:02:18.204Z,94.30
2023-02-02T13:08:57.924Z,94.40
2023-02-02T13:11:51.760Z,94.10
2023-02-02T13:14:50.123Z,94.20
2023-02-02T13:17:34.424Z,94.10
2023-02-02T13:20:13.905Z,94.10
2023-02-02T13:22:47.929Z,94.20
2023-02-02T13:25:24.096Z,94.20
2023-02-02T13:28:31.233Z,94.20
2023-02-02T13:34:19.273Z,94.00
2023-02-02T13:37:05.144Z,93.90
2023-02-02T13:39:50.113Z,94.00
2023-02-02T13:42:45.429Z,93.90
2023-02-02T13:46:06.929Z,93.90
2023-02-02T13:48:44.167Z,93.90
2023-02-02T13:51:54.585Z,93.90
2023-02-02T13:54:26.979Z,94.00
2023-02-02T13:57:01.660Z,93.90
2023-02-02T13:59:52.060Z,93.80
2023-02-02T14:02:48.209Z,93.80
2023-02-02T14:05:35.732Z,93.80
2023-02-02T14:08:29.455Z,93.80
2023-02-02T14:11:07.946Z,93.90
2023-02-02T14:14:09.521Z,94.30
2023-02-02T14:16:40.906Z,93.90
2023-02-02T14:19:44.566Z,93.70
2023-02-02T14:22:16.037Z,93.80
2023-02-02T14:25:41.560Z,93.90
2023-02-02T14:28:42.923Z,93.90
2023-02-02T14:31:55.380Z,93.80
2023-02-02T14:34:44.719Z,93.90
2023-02-02T14:37:16.236Z,93.70
2023-02-02T14:40:04.453Z,94.00
2023-02-02T14:43:21.238Z,93.90
2023-02-02T14:46:15.287Z,93.70
2023-02-02T14:49:06.118Z,93.70
2023-02-02T14:52:02.266Z,93.90
2023-02-02T14:54:53.965Z,93.70
2023-02-02T14:57:47.016Z,93.70
2023-02-02T15:00:54.122Z,93.60
2023-02-02T15:03:47.716Z,93.90
2023-02-02T15:06:46.840Z,93.90
2023-02-02T15:09:30.794Z,93.90
2023-02-02T15:12:14.603Z,93.70
2023-02-02T15:15:19.597Z,93.80
2023-02-02T15:18:15.487Z,94.00
2023-02-02T15:20:54.411Z,93.70
2023-02-02T15:23:25.742Z,93.60
2023-02-02T15:26:11.700Z,93.60
2023-02-02T15:29:03.735Z,93.50
2023-02-02T15:31:51.613Z,93.50
2023-02-02T15:35:03.474Z,93.60
2023-02-02T15:37:57.778Z,93.80
2023-02-02T15:40:31.542Z,93.60
2023-02-02T15:43:07.840Z,93.50
2023-02-02T15:45:57.971Z,93.60
2023-02-02T15:48:31.806Z,93.50
2023-02-02T15:52:18.001Z,93.60
2023-02-02T15:54:55.203Z,93.40
2023-02-02T15:57:49.572Z,93.40
2023-02-02T16:00:32.492Z,93.40
2023-02-02T16:03:24.137Z,93.40
2023-02-02T16:05:58.678Z,93.30
2023-02-02T16:08:54.709Z,93.40
2023-02-02T16:11:26.660Z,93.60
2023-02-02T16:14:20.962Z,93.40
2023-02-02T16:16:53.530Z,93.40
2023-02-02T16:19:29.275Z,93.80
2023-02-02T16:22:12.606Z,93.50
2023-02-02T16:24:57.033Z,93.30
2023-02-02T16:27:34.090Z,93.20
2023-02-02T16:30:16.150Z,93.40
2023-02-02T16:32:48.324Z,93.40
2023-02-02T16:35:38.518Z,93.10
2023-02-02T16:38:37.436Z,93.20
2023-02-02T16:41:24.322Z,93.60
2023-02-02T16:44:48.171Z,93.30
2023-02-02T16:47:37.994Z,94.00
2023-02-02T16:50:29.999Z,93.50
2023-02-02T16:53:07.491Z,93.60
2023-02-02T16:55:50.348Z,93.50
2023-02-02T16:58:25.199Z,93.70
2023-02-02T17:01:55.020Z,93.30
2023-02-02T17:04:36.778Z,93.30
2023-02-02T17:07:29.263Z,93.40
2023-02-02T17:10:26.002Z,93.20
2023-02-02T17:12:57.328Z,93.20
2023-02-02T17:15:34.364Z,93.40
2023-02-02T17:18:29.001Z,93.30
2023-02-02T17:21:24.727Z,93.20
2023-02-02T17:23:58.288Z,93.70
2023-02-02T17:26:49.737Z,93.50
2023-02-02T17:29:25.312Z,93.40
2023-02-02T17:31:56.402Z,93.40
2023-02-02T17:34:47.975Z,93.60
2023-02-02T17:37:20.222Z,93.40
2023-02-02T17:39:52.295Z,93.40
2023-02-02T17:42:33.290Z,93.70
2023-02-02T17:45:05.105Z,93.40
2023-02-02T17:47:39.030Z,93.60
2023-02-02T17:50:10.261Z,93.80
2023-02-02T17:52:41.669Z,93.70
2023-02-02T17:55:36.964Z,93.70
2023-02-02T17:58:08.393Z,93.40
2023-02-02T18:00:42.172Z,93.80
2023-02-02T18:03:35.220Z,93.70
2023-02-02T18:06:06.529Z,93.40
2023-02-02T18:08:37.692Z,93.20
2023-02-02T18:11:08.803Z,93.20
2023-02-02T18:13:39.993Z,93.20
2023-02-02T18:16:12.655Z,93.20
2023-02-02T18:18:43.642Z,93.20
2023-02-02T18:21:18.531Z,93.00
2023-02-02T18:23:54.006Z,93.10
2023-02-02T18:26:25.674Z,93.20
2023-02-02T18:28:57.015Z,93.20
2023-02-02T18:31:28.693Z,93.30
2023-02-02T18:33:59.995Z,93.50
2023-02-02T18:36:30.984Z,93.50
2023-02-02T18:39:22.002Z,93.30
2023-02-02T18:41:53.127Z,93.50
2023-02-02T18:44:25.539Z,93.20
2023-02-02T18:47:17.564Z,93.10
2023-02-02T18:49:49.211Z,93.20
2023-02-02T18:52:21.378Z,93.30
2023-02-02T18:54:52.922Z,93.20
2023-02-02T18:57:24.226Z,93.10
2023-02-02T18:59:56.407Z,93.10
2023-02-02T19:02:27.994Z,93.40
2023-02-02T19:05:16.938Z,93.70
2023-02-02T19:07:56.472Z,93.60
2023-02-02T19:10:29.664Z,93.50
2023-02-02T19:13:05.262Z,93.30
2023-02-02T19:15:39.248Z,93.10
2023-02-02T19:18:20.463Z,93.00
2023-02-02T19:20:52.691Z,92.90
2023-02-02T19:23:25.664Z,92.80
2023-02-02T19:25:58.365Z,92.90
2023-02-02T19:28:33.974Z,93.20
2023-02-02T19:31:05.293Z,93.10
2023-02-02T19:33:47.359Z,93.60
2023-02-02T19:36:24.444Z,93.20
2023-02-02T19:39:03.171Z,93.20
2023-02-02T19:41:43.657Z,93.50
2023-02-02T19:44:24.010Z,93.50
2023-02-02T19:46:58.022Z,93.60
2023-02-02T19:49:30.097Z,93.40
2023-02-02T19:52:02.378Z,93.30
2023-02-02T19:54:36.058Z,93.30
2023-02-02T19:57:22.738Z,93.40
2023-02-02T20:00:13.872Z,93.40
2023-02-02T20:02:58.737Z,93.20
2023-02-02T20:05:39.573Z,93.20
2023-02-02T20:08:26.651Z,93.10
2023-02-02T20:11:02.001Z,93.30
2023-02-02T20:13:45.650Z,93.30
2023-02-02T20:16:25.551Z,93.50
2023-02-02T20:18:58.933Z,93.50
2023-02-02T20:21:29.836Z,93.40
2023-02-02T20:24:00.786Z,93.20
2023-02-02T20:26:39.641Z,93.30
2023-02-02T20:29:42.227Z,93.20
2023-02-02T20:32:24.646Z,93.30
2023-02-02T20:35:43.010Z,93.40
2023-02-02T20:38:37.625Z,93.20
2023-02-02T20:41:09.121Z,93.20
2023-02-02T20:43:59.677Z,93.10
2023-02-02T20:46:30.411Z,93.10
2023-02-02T20:49:01.147Z,92.90
2023-02-02T20:51:31.917Z,92.90
2023-02-02T20:54:02.913Z,92.90
2023-02-02T20:56:33.855Z,92.90
2023-02-02T20:59:07.208Z,92.80
2023-02-02T21:01:38.294Z,93.10
2023-02-02T21:04:09.328Z,93.30
2023-02-02T21:06:42.110Z,93.10
2023-02-02T21:09:13.036Z,93.00
2023-02-02T21:11:44.108Z,93.00
2023-02-02T21:14:14.969Z,93.10
2023-02-02T21:17:14.441Z,92.90
2023-02-02T21:19:46.283Z,93.00
2023-02-02T21:22:17.511Z,92.90
2023-02-02T21:24:50.629Z,92.90
2023-02-02T21:27:21.335Z,92.80
2023-02-02T21:29:52.302Z,92.90
2023-02-02T21:32:23.267Z,92.90
2023-02-02T21:34:54.112Z,93.10
2023-02-02T21:37:24.760Z,93.00
2023-02-02T21:40:01.205Z,93.20
2023-02-02T21:42:37.155Z,93.10
2023-02-02T21:45:23.077Z,93.10
2023-02-02T21:48:01.749Z,93.00
2023-02-02T21:50:36.982Z,92.90
2023-02-02T21:53:21.746Z,92.80
2023-02-02T21:56:01.264Z,92.70
2023-02-02T21:58:43.590Z,92.60
2023-02-02T22:01:25.590Z,92.60
2023-02-02T22:03:56.532Z,92.90
2023-02-02T22:06:32.496Z,93.10
2023-02-02T22:09:15.482Z,93.10
2023-02-02T22:11:49.031Z,93.00
2023-02-02T22:14:22.710Z,92.90
2023-02-02T22:16:58.556Z,93.00
2023-02-02T22:19:35.407Z,93.00
2023-02-02T22:22:19.612Z,92.90
2023-02-02T22:25:04.209Z,92.90
2023-02-02T22:27:58.920Z,92.80
2023-02-02T22:30:41.889Z,92.80
2023-02-02T22:33:14.653Z,92.60
2023-02-02T22:35:47.614Z,92.60
2023-02-02T22:38:26.400Z,92.60
2023-02-02T22:40:57.349Z,92.50
2023-02-02T22:43:28.090Z,92.60
2023-02-02T22:45:58.951Z,92.70
2023-02-02T22:48:29.837Z,92.80
2023-02-02T22:51:00.511Z,92.70
2023-02-02T22:53:31.492Z,92.60
2023-02-02T22:56:02.468Z,92.70
2023-02-02T22:58:33.372Z,92.60
2023-02-02T23:01:04.021Z,92.50
2023-02-02T23:03:34.859Z,92.50
2023-02-02T23:06:05.881Z,92.50
2023-02-02T23:08:36.751Z,92.30
2023-02-02T23:11:07.705Z,92.40
2023-02-02T23:13:38.561Z,92.60
2023-02-02T23:16:09.951Z,92.40
2023-02-02T23:18:40.982Z,92.40
2023-02-02T23:21:11.654Z,92.60
2023-02-02T23:23:42.518Z,92.50
2023-02-02T23:26:13.575Z,92.50
2023-02-02T23:29:03.937Z,92.80
2023-02-02T23:31:34.742Z,92.40
2023-02-02T23:34:05.660Z,92.40
2023-02-02T23:36:36.426Z,92.40
2023-02-02T23:39:07.062Z,92.40
2023-02-02T23:41:37.725Z,92.30
2023-02-02T23:44:08.529Z,92.20
2023-02-02T23:46:40.334Z,92.30
2023-02-02T23:49:11.455Z,92.30
2023-02-02T23:51:42.732Z,92.20
2023-02-02T23:54:15.632Z,92.30
2023-02-02T23:56:46.556Z,92.40
2023-02-02T23:59:17.495Z,92.50
